EGPI

Details ICAO EGPI (ILY)
Name Islay
Region United Kingdom
Timezone Europe/London (UTC+1.0)
Plans Departing 14
Arriving 28
Stats Elevation 54 ft / 16 m (AMSL)
Location 55.683419° -6.256875°
Runways 2
Magnetic Variation 3.385° W
Sunrise 2018-05-22 04:03:41 UTC / 2018-05-22 05:03:41 Local
Sunset 2018-05-22 20:42:34 UTC / 2018-05-22 21:42:34 Local
Advertisement - Login to hide

Runways

ID Width Length Bearing (true) Bearing (mag) Surface Threshold Offset Overrun Length
08 59 ft / 18 m 2,077 ft / 633 m 70.45° 73.84° Asphalt 0 ft / 0 m 0 ft / 0 m
13 151 ft / 46 m 5,068 ft / 1,545 m 120.93° 124.32° Asphalt 463 ft / 141 m 0 ft / 0 m
26 59 ft / 18 m 2,077 ft / 633 m 250.46° 253.85° Asphalt 190 ft / 58 m 0 ft / 0 m
31 151 ft / 46 m 5,068 ft / 1,545 m 300.95° 304.34° Asphalt 463 ft / 141 m 0 ft / 0 m

Map

Weather


0- 5 10 15 20 25 30 35+ Temperature / ° C

Clouds and Precipitation
Forecast for 2018-05-22 12:00 UTC. Updated 3 hours ago

Ground ~20,000 ft ~40,000 ft Winds

METAR

EGPI 221420Z 26007KT 230V290 9999 FEW032 OVC046 14/09 Q1024

TAF

Not found

Frequencies

Tower 121.60 MHz Islay Fire Chief
Tower 123.15 MHz Islay Information
Warning: Do not use this data for real-world aviation or navigation. No guarantee of current accuracy is given.